createdAt,value
2019-05-30T00:00:12.439Z,14.08
2019-05-30T00:00:59.977Z,14.19
2019-05-30T00:01:58.608Z,14.42
2019-05-30T00:02:58.701Z,14.35
2019-05-30T00:03:58.922Z,14.30
2019-05-30T00:05:00.200Z,14.11
2019-05-30T00:05:58.350Z,14.21
2019-05-30T00:06:58.679Z,14.11
2019-05-30T00:08:00.309Z,14.12
2019-05-30T00:09:00.432Z,14.12
2019-05-30T00:09:58.672Z,14.29
2019-05-30T00:10:58.847Z,14.23
2019-05-30T00:12:00.833Z,14.46
2019-05-30T00:13:00.630Z,14.23
2019-05-30T00:14:00.657Z,14.08
2019-05-30T00:15:00.685Z,14.21
2019-05-30T00:16:00.767Z,14.29
2019-05-30T00:17:00.941Z,14.04
2019-05-30T00:18:00.887Z,14.01
2019-05-30T00:19:00.893Z,14.01
2019-05-30T00:20:01.016Z,13.87
2019-05-30T00:21:00.873Z,13.94
2019-05-30T00:22:00.866Z,14.08
2019-05-30T00:23:01.065Z,14.01
2019-05-30T00:24:02.204Z,14.01
2019-05-30T00:25:02.455Z,13.88
2019-05-30T00:26:01.520Z,13.79
2019-05-30T00:27:02.460Z,13.83
2019-05-30T00:28:05.157Z,13.99
2019-05-30T00:29:02.586Z,13.79
2019-05-30T00:30:03.588Z,13.79
2019-05-30T00:31:04.685Z,13.71
2019-05-30T00:32:03.980Z,13.75
2019-05-30T00:33:03.521Z,13.62
2019-05-30T00:34:04.252Z,13.69
2019-05-30T00:35:03.831Z,13.55
2019-05-30T00:36:03.927Z,13.55
2019-05-30T00:37:04.111Z,13.72
2019-05-30T00:38:05.989Z,13.88
2019-05-30T00:39:06.432Z,13.83
2019-05-30T00:40:04.231Z,13.86
2019-05-30T00:41:06.188Z,13.88
2019-05-30T00:42:04.641Z,13.84
2019-05-30T00:43:04.843Z,13.81
2019-05-30T00:44:06.178Z,13.83
2019-05-30T00:45:17.962Z,13.81
2019-05-30T00:46:07.438Z,13.79
2019-05-30T00:47:06.444Z,13.75
2019-05-30T00:48:06.495Z,13.57
2019-05-30T00:49:06.645Z,13.69
2019-05-30T00:50:06.689Z,13.73
2019-05-30T00:51:06.731Z,13.79
2019-05-30T00:52:06.869Z,13.75
2019-05-30T00:53:08.411Z,13.86
2019-05-30T00:54:07.129Z,13.80
2019-05-30T00:55:07.228Z,13.90
2019-05-30T00:56:07.911Z,13.80
2019-05-30T00:57:07.564Z,14.08
2019-05-30T00:58:07.742Z,14.04
2019-05-30T00:59:07.952Z,14.02
2019-05-30T01:00:08.920Z,13.90
2019-05-30T01:01:08.314Z,13.87
2019-05-30T01:02:08.550Z,13.87
2019-05-30T01:03:09.193Z,13.83
2019-05-30T01:04:09.913Z,13.80
2019-05-30T01:05:09.069Z,13.73
2019-05-30T01:06:09.258Z,13.76
2019-05-30T01:07:09.923Z,13.69
2019-05-30T01:08:09.598Z,13.71
2019-05-30T01:09:09.813Z,13.75
2019-05-30T01:10:10.018Z,13.69
2019-05-30T01:11:10.214Z,13.69
2019-05-30T01:12:10.414Z,13.76
2019-05-30T01:13:10.617Z,13.93
2019-05-30T01:14:10.788Z,13.86
2019-05-30T01:15:10.978Z,13.90
2019-05-30T01:16:11.150Z,13.83
2019-05-30T01:17:11.319Z,13.90
2019-05-30T01:18:11.558Z,13.83
2019-05-30T01:19:11.739Z,13.76
2019-05-30T01:20:11.924Z,13.79
2019-05-30T01:21:12.110Z,13.87
2019-05-30T01:22:12.267Z,13.96
2019-05-30T01:23:12.922Z,13.93
2019-05-30T01:24:12.578Z,14.08
2019-05-30T01:25:12.745Z,14.27
2019-05-30T01:26:13.425Z,14.35
2019-05-30T01:27:13.066Z,14.26
2019-05-30T01:28:13.256Z,14.17
2019-05-30T01:29:13.430Z,14.08
2019-05-30T01:30:13.606Z,14.24
2019-05-30T01:31:13.745Z,14.21
2019-05-30T01:32:13.996Z,14.54
2019-05-30T01:33:14.172Z,14.44
2019-05-30T01:34:14.313Z,14.13
2019-05-30T01:35:14.500Z,13.99
2019-05-30T01:36:14.657Z,13.81
2019-05-30T01:37:14.807Z,13.76
2019-05-30T01:38:14.944Z,13.90
2019-05-30T01:39:15.106Z,13.93
2019-05-30T01:40:15.280Z,13.94
2019-05-30T01:41:17.564Z,14.01
2019-05-30T01:42:16.584Z,14.06
2019-05-30T01:43:15.728Z,14.31
2019-05-30T01:44:15.881Z,14.29
2019-05-30T01:45:16.023Z,14.35
2019-05-30T01:46:17.171Z,14.45
2019-05-30T01:47:16.295Z,14.54
2019-05-30T01:48:16.448Z,14.23
2019-05-30T01:49:16.578Z,14.11
2019-05-30T01:50:16.724Z,14.57
2019-05-30T01:51:16.894Z,14.60
2019-05-30T01:52:17.066Z,14.61
2019-05-30T01:53:17.236Z,14.75
2019-05-30T01:54:17.434Z,14.87
2019-05-30T01:55:17.602Z,14.80
2019-05-30T01:56:17.761Z,14.61
2019-05-30T01:57:17.968Z,14.64
2019-05-30T01:58:18.132Z,14.90
2019-05-30T01:59:18.281Z,14.90
2019-05-30T02:00:21.265Z,14.80
2019-05-30T02:01:24.992Z,14.69
2019-05-30T02:02:20.832Z,14.66
2019-05-30T02:03:19.450Z,14.83
2019-05-30T02:04:19.129Z,14.71
2019-05-30T02:05:19.296Z,14.44
2019-05-30T02:06:20.428Z,14.44
2019-05-30T02:07:19.670Z,14.36
2019-05-30T02:08:19.869Z,14.39
2019-05-30T02:09:20.926Z,14.41
2019-05-30T02:10:20.435Z,14.24
2019-05-30T02:11:20.345Z,14.35
2019-05-30T02:12:20.535Z,14.38
2019-05-30T02:13:20.686Z,14.39
2019-05-30T02:14:20.870Z,14.16
2019-05-30T02:15:21.933Z,14.09
2019-05-30T02:16:21.190Z,14.16
2019-05-30T02:17:21.333Z,14.30
2019-05-30T02:18:21.519Z,14.24
2019-05-30T02:19:21.693Z,14.16
2019-05-30T02:20:21.852Z,14.21
2019-05-30T02:21:22.030Z,14.26
2019-05-30T02:22:22.155Z,14.24
2019-05-30T02:23:22.926Z,14.24
2019-05-30T02:24:22.429Z,14.13
2019-05-30T02:25:22.569Z,14.05
2019-05-30T02:26:22.723Z,14.12
2019-05-30T02:27:22.907Z,14.09
2019-05-30T02:28:23.057Z,14.08
2019-05-30T02:29:23.228Z,14.08
2019-05-30T02:30:23.922Z,13.96
2019-05-30T02:31:38.298Z,14.04
2019-05-30T02:32:25.781Z,14.06
2019-05-30T02:33:24.918Z,14.21
2019-05-30T02:34:24.942Z,14.21
2019-05-30T02:35:24.976Z,14.08
2019-05-30T02:36:24.410Z,14.09
2019-05-30T02:37:25.422Z,14.04
2019-05-30T02:38:24.791Z,13.99
2019-05-30T02:39:24.968Z,14.12
2019-05-30T02:40:25.136Z,14.02
2019-05-30T02:41:25.351Z,14.02
2019-05-30T02:42:25.520Z,13.98
2019-05-30T02:43:26.423Z,13.99
2019-05-30T02:44:25.922Z,13.87
2019-05-30T02:45:26.081Z,14.08
2019-05-30T02:46:26.218Z,13.98
2019-05-30T02:47:26.340Z,13.83
2019-05-30T02:48:26.458Z,13.61
2019-05-30T02:49:27.580Z,13.57
2019-05-30T02:50:26.835Z,13.66
2019-05-30T02:51:26.954Z,13.71
2019-05-30T02:52:27.930Z,13.65
2019-05-30T02:53:27.413Z,13.90
2019-05-30T02:54:27.576Z,13.75
2019-05-30T02:55:27.744Z,14.12
2019-05-30T02:56:27.864Z,14.09
2019-05-30T02:57:28.023Z,14.39
2019-05-30T02:58:28.153Z,14.21
2019-05-30T02:59:28.333Z,14.26
2019-05-30T03:00:28.498Z,14.26
2019-05-30T03:01:29.432Z,14.21
2019-05-30T03:02:28.822Z,14.12
2019-05-30T03:03:28.972Z,14.16
2019-05-30T03:04:29.137Z,14.09
2019-05-30T03:05:29.280Z,14.09
2019-05-30T03:06:29.437Z,14.01
2019-05-30T03:07:29.569Z,14.01
2019-05-30T03:08:30.696Z,13.80
2019-05-30T03:09:29.933Z,13.76
2019-05-30T03:10:30.080Z,13.63
2019-05-30T03:11:30.249Z,13.80
2019-05-30T03:12:30.382Z,13.69
2019-05-30T03:13:30.550Z,13.68
2019-05-30T03:14:31.659Z,13.71
2019-05-30T03:15:30.868Z,13.55
2019-05-30T03:16:31.128Z,13.44
2019-05-30T03:17:31.243Z,13.38
2019-05-30T03:18:31.466Z,13.47
2019-05-30T03:19:31.700Z,13.47
2019-05-30T03:20:31.932Z,13.72
2019-05-30T03:21:32.195Z,13.61
2019-05-30T03:22:32.335Z,13.59
2019-05-30T03:23:32.443Z,13.50
2019-05-30T03:24:33.559Z,13.35
2019-05-30T03:25:32.771Z,13.39
2019-05-30T03:26:34.018Z,13.71
2019-05-30T03:27:33.149Z,13.59
2019-05-30T03:28:33.303Z,13.54
2019-05-30T03:29:33.461Z,13.54
2019-05-30T03:30:33.604Z,13.65
2019-05-30T03:31:33.736Z,13.57
2019-05-30T03:33:05.375Z,13.65
2019-05-30T03:33:41.448Z,13.81
2019-05-30T03:34:36.198Z,13.72
2019-05-30T03:35:41.626Z,13.79
2019-05-30T03:36:36.558Z,13.68
2019-05-30T03:37:34.717Z,13.62
2019-05-30T03:38:34.869Z,13.69
2019-05-30T03:39:35.038Z,13.81
2019-05-30T03:40:36.246Z,13.91
2019-05-30T03:41:35.371Z,13.79
2019-05-30T03:42:35.501Z,13.68
2019-05-30T03:43:35.669Z,13.87
2019-05-30T03:44:35.866Z,13.83
2019-05-30T03:45:36.015Z,13.91
2019-05-30T03:46:36.171Z,14.06
2019-05-30T03:47:36.348Z,14.11
2019-05-30T03:48:36.517Z,13.93
2019-05-30T03:49:36.672Z,14.04
2019-05-30T03:50:36.819Z,14.08
2019-05-30T03:51:37.001Z,13.99
2019-05-30T03:52:37.146Z,14.08
2019-05-30T03:53:37.331Z,14.05
2019-05-30T03:54:38.440Z,14.06
2019-05-30T03:55:37.669Z,14.23
2019-05-30T03:56:38.830Z,14.11
2019-05-30T03:57:37.957Z,14.30
2019-05-30T03:58:38.138Z,14.29
2019-05-30T03:59:38.308Z,14.44
2019-05-30T04:00:38.478Z,14.44
2019-05-30T04:01:38.631Z,14.21
2019-05-30T04:02:55.172Z,14.09
2019-05-30T04:03:41.048Z,14.01
2019-05-30T04:04:39.159Z,13.93
2019-05-30T04:05:39.478Z,14.02
2019-05-30T04:06:40.467Z,13.86
2019-05-30T04:07:39.720Z,13.81
2019-05-30T04:08:39.894Z,13.86
2019-05-30T04:09:40.070Z,13.93
2019-05-30T04:10:40.251Z,13.94
2019-05-30T04:11:40.420Z,14.02
2019-05-30T04:12:40.599Z,14.08
2019-05-30T04:13:40.810Z,13.96
2019-05-30T04:14:40.968Z,13.94
2019-05-30T04:15:41.128Z,14.05
2019-05-30T04:16:41.287Z,14.26
2019-05-30T04:17:41.429Z,14.35
2019-05-30T04:18:41.609Z,14.46
2019-05-30T04:19:41.958Z,14.52
2019-05-30T04:20:41.993Z,14.59
2019-05-30T04:21:42.155Z,14.71
2019-05-30T04:22:42.299Z,14.67
2019-05-30T04:23:42.434Z,14.54
2019-05-30T04:24:42.606Z,14.57
2019-05-30T04:25:42.815Z,14.64
2019-05-30T04:26:42.995Z,14.66
2019-05-30T04:27:43.150Z,14.64
2019-05-30T04:28:43.299Z,14.78
2019-05-30T04:29:43.420Z,14.85
2019-05-30T04:30:43.959Z,14.75
2019-05-30T04:31:43.731Z,14.91
2019-05-30T04:32:43.896Z,14.66
2019-05-30T04:33:44.049Z,14.69
2019-05-30T04:34:44.220Z,14.60
2019-05-30T04:35:44.350Z,14.90
2019-05-30T04:36:44.538Z,14.94
2019-05-30T04:37:44.716Z,14.60
2019-05-30T04:38:44.860Z,14.49
2019-05-30T04:39:45.011Z,14.64
2019-05-30T04:40:45.183Z,14.52
2019-05-30T04:41:45.449Z,14.61
2019-05-30T04:42:45.488Z,14.48
2019-05-30T04:43:45.648Z,14.66
2019-05-30T04:44:46.817Z,14.72
2019-05-30T04:45:45.948Z,14.94
2019-05-30T04:46:46.112Z,15.19
2019-05-30T04:47:46.261Z,15.16
2019-05-30T04:48:46.423Z,15.23
2019-05-30T04:49:46.587Z,15.31
2019-05-30T04:50:46.747Z,15.20
2019-05-30T04:51:46.959Z,15.19
2019-05-30T04:52:47.126Z,15.05
2019-05-30T04:53:47.298Z,15.11
2019-05-30T04:54:47.465Z,15.05
2019-05-30T04:55:47.688Z,15.05
2019-05-30T04:56:47.892Z,15.03
2019-05-30T04:57:48.066Z,15.05
2019-05-30T04:58:48.225Z,15.12
2019-05-30T04:59:48.384Z,15.11
2019-05-30T05:00:48.525Z,15.19
2019-05-30T05:01:48.701Z,15.12
2019-05-30T05:02:48.848Z,15.13
2019-05-30T05:03:49.020Z,15.05
2019-05-30T05:04:49.218Z,15.12
2019-05-30T05:05:49.384Z,15.18
2019-05-30T05:06:49.574Z,15.09
2019-05-30T05:07:49.764Z,15.03
2019-05-30T05:08:49.984Z,15.04
2019-05-30T05:09:50.160Z,14.97
2019-05-30T05:10:50.299Z,15.03
2019-05-30T05:11:51.453Z,14.94
2019-05-30T05:12:50.613Z,15.05
2019-05-30T05:13:50.768Z,14.86
2019-05-30T05:14:50.944Z,14.82
2019-05-30T05:15:51.136Z,14.64
2019-05-30T05:16:51.295Z,14.60
2019-05-30T05:17:51.495Z,14.63
2019-05-30T05:18:51.684Z,14.64
2019-05-30T05:19:51.859Z,14.61
2019-05-30T05:20:52.007Z,14.61
2019-05-30T05:21:52.184Z,14.63
2019-05-30T05:22:52.364Z,14.78
2019-05-30T05:23:52.528Z,14.80
2019-05-30T05:24:52.725Z,14.75
2019-05-30T05:26:00.950Z,14.74
2019-05-30T05:26:55.142Z,14.66
2019-05-30T05:27:53.405Z,14.79
2019-05-30T05:28:53.563Z,14.87
2019-05-30T05:29:53.738Z,14.91
2019-05-30T05:30:53.915Z,14.85
2019-05-30T05:31:54.085Z,14.97
2019-05-30T05:32:54.263Z,14.98
2019-05-30T05:33:56.963Z,14.95
2019-05-30T05:34:55.549Z,14.91
2019-05-30T05:35:54.672Z,15.20
2019-05-30T05:36:54.827Z,15.04
2019-05-30T05:37:54.992Z,15.12
2019-05-30T05:38:55.190Z,15.13
2019-05-30T05:39:55.352Z,15.07
2019-05-30T05:40:55.560Z,15.15
2019-05-30T05:41:55.729Z,15.13
2019-05-30T05:42:55.920Z,15.31
2019-05-30T05:43:56.132Z,15.28
2019-05-30T05:44:56.261Z,15.28
2019-05-30T05:45:56.438Z,15.23
2019-05-30T05:46:56.629Z,15.20
2019-05-30T05:47:57.456Z,15.37
2019-05-30T05:48:57.067Z,15.38
2019-05-30T05:49:57.156Z,15.58
2019-05-30T05:50:57.348Z,15.52
2019-05-30T05:51:57.555Z,15.52
2019-05-30T05:52:57.748Z,15.38
2019-05-30T05:53:57.957Z,15.52
2019-05-30T05:54:58.160Z,15.33
2019-05-30T05:55:58.362Z,15.40
2019-05-30T05:56:58.554Z,15.33
2019-05-30T05:57:58.735Z,15.38
2019-05-30T05:58:58.923Z,15.44
2019-05-30T05:59:59.126Z,15.58
2019-05-30T06:00:59.328Z,15.53
2019-05-30T06:01:59.493Z,15.62
2019-05-30T06:02:59.642Z,15.73
2019-05-30T06:04:12.841Z,15.66
2019-05-30T06:05:02.471Z,15.59
2019-05-30T06:06:00.971Z,15.64
2019-05-30T06:07:00.280Z,15.64
2019-05-30T06:08:00.448Z,15.51
2019-05-30T06:09:01.468Z,15.56
2019-05-30T06:10:00.792Z,15.62
2019-05-30T06:11:00.893Z,15.70
2019-05-30T06:12:01.067Z,15.92
2019-05-30T06:13:01.237Z,15.95
2019-05-30T06:14:01.409Z,16.13
2019-05-30T06:15:01.595Z,15.96
2019-05-30T06:16:01.835Z,15.93
2019-05-30T06:17:02.005Z,15.96
2019-05-30T06:18:02.169Z,16.11
2019-05-30T06:19:02.306Z,16.01
2019-05-30T06:20:02.483Z,16.22
2019-05-30T06:21:02.664Z,16.17
2019-05-30T06:22:02.808Z,16.08
2019-05-30T06:23:02.973Z,15.95
2019-05-30T06:24:03.125Z,15.99
2019-05-30T06:25:03.306Z,15.95
2019-05-30T06:26:03.467Z,15.84
2019-05-30T06:27:03.665Z,15.98
2019-05-30T06:28:03.850Z,15.93
2019-05-30T06:29:04.526Z,15.92
2019-05-30T06:30:04.160Z,15.73
2019-05-30T06:31:04.320Z,15.80
2019-05-30T06:32:04.500Z,15.81
2019-05-30T06:33:04.720Z,15.85
2019-05-30T06:34:04.887Z,15.93
2019-05-30T06:35:05.032Z,15.84
2019-05-30T06:36:05.168Z,16.16
2019-05-30T06:37:05.474Z,16.13
2019-05-30T06:38:05.487Z,15.95
2019-05-30T06:39:06.477Z,15.99
2019-05-30T06:40:05.850Z,16.08
2019-05-30T06:41:06.016Z,16.18
2019-05-30T06:42:06.217Z,16.30
2019-05-30T06:43:06.394Z,16.32
2019-05-30T06:44:06.543Z,16.40
2019-05-30T06:45:06.746Z,16.45
2019-05-30T06:46:06.922Z,16.47
2019-05-30T06:47:07.167Z,16.51
2019-05-30T06:48:07.365Z,16.63
2019-05-30T06:49:07.536Z,16.59
2019-05-30T06:50:08.469Z,16.45
2019-05-30T06:51:07.860Z,16.66
2019-05-30T06:52:08.026Z,16.62
2019-05-30T06:53:08.239Z,16.54
2019-05-30T06:54:08.407Z,16.54
2019-05-30T06:55:08.978Z,16.65
2019-05-30T06:56:08.717Z,16.63
2019-05-30T06:57:08.913Z,16.66
2019-05-30T06:58:09.076Z,16.63
2019-05-30T06:59:09.986Z,16.77
2019-05-30T07:00:09.366Z,16.63
2019-05-30T07:01:09.524Z,16.73
2019-05-30T07:02:09.734Z,17.02
2019-05-30T07:03:09.989Z,16.95
2019-05-30T07:04:11.400Z,16.88
2019-05-30T07:05:10.891Z,16.81
2019-05-30T07:06:10.787Z,16.77
2019-05-30T07:07:10.660Z,16.73
2019-05-30T07:08:10.676Z,16.63
2019-05-30T07:09:10.825Z,16.55
2019-05-30T07:10:10.992Z,16.40
2019-05-30T07:11:11.176Z,16.36
2019-05-30T07:12:12.106Z,16.16
2019-05-30T07:13:12.556Z,16.04
2019-05-30T07:14:11.671Z,16.14
2019-05-30T07:15:11.853Z,15.92
2019-05-30T07:16:12.021Z,15.86
2019-05-30T07:17:12.193Z,15.88
2019-05-30T07:18:12.382Z,15.81
2019-05-30T07:19:12.539Z,16.04
2019-05-30T07:20:12.706Z,16.06
2019-05-30T07:21:12.890Z,16.04
2019-05-30T07:22:13.060Z,16.13
2019-05-30T07:23:13.255Z,16.04
2019-05-30T07:24:13.424Z,16.17
2019-05-30T07:25:13.594Z,15.95
2019-05-30T07:26:13.740Z,15.88
2019-05-30T07:27:13.930Z,15.88
2019-05-30T07:28:14.095Z,15.89
2019-05-30T07:29:14.272Z,15.86
2019-05-30T07:30:14.457Z,15.93
2019-05-30T07:31:14.630Z,15.88
2019-05-30T07:32:14.785Z,16.06
2019-05-30T07:33:14.992Z,15.95
2019-05-30T07:34:15.158Z,15.98
2019-05-30T07:35:15.320Z,15.93
2019-05-30T07:36:15.524Z,15.99
2019-05-30T07:37:15.678Z,16.06
2019-05-30T07:38:15.878Z,16.14
2019-05-30T07:39:16.057Z,16.29
2019-05-30T07:40:19.412Z,16.50
2019-05-30T07:41:17.366Z,16.69
2019-05-30T07:42:16.520Z,16.63
2019-05-30T07:43:16.731Z,16.62
2019-05-30T07:44:16.928Z,16.44
2019-05-30T07:45:17.137Z,16.52
2019-05-30T07:46:17.325Z,16.65
2019-05-30T07:47:17.514Z,16.55
2019-05-30T07:48:17.687Z,16.51
2019-05-30T07:49:17.880Z,16.55
2019-05-30T07:50:18.092Z,16.57
2019-05-30T07:51:18.247Z,16.60
2019-05-30T07:52:18.432Z,16.47
2019-05-30T07:53:18.647Z,16.33
2019-05-30T07:54:18.837Z,16.32
2019-05-30T07:55:19.023Z,16.25
2019-05-30T07:56:19.204Z,16.34
2019-05-30T07:57:19.395Z,16.10
2019-05-30T07:58:19.579Z,15.99
2019-05-30T07:59:19.807Z,16.17
2019-05-30T08:00:20.490Z,16.17
2019-05-30T08:01:20.167Z,16.22
2019-05-30T08:02:20.333Z,16.29
2019-05-30T08:03:20.517Z,16.27
2019-05-30T08:04:20.702Z,16.42
2019-05-30T08:05:24.601Z,16.63
2019-05-30T08:06:22.009Z,16.66
2019-05-30T08:07:21.151Z,16.66
2019-05-30T08:08:21.309Z,16.88
2019-05-30T08:09:21.503Z,16.87
2019-05-30T08:10:21.676Z,16.96
2019-05-30T08:11:21.840Z,16.95
2019-05-30T08:12:22.001Z,17.06
2019-05-30T08:13:22.162Z,16.98
2019-05-30T08:14:22.353Z,16.95
2019-05-30T08:15:22.531Z,17.27
2019-05-30T08:16:22.753Z,17.24
2019-05-30T08:17:22.915Z,17.17
2019-05-30T08:18:24.131Z,17.17
2019-05-30T08:19:23.252Z,17.07
2019-05-30T08:20:23.432Z,17.02
2019-05-30T08:21:23.590Z,17.12
2019-05-30T08:22:23.778Z,17.06
2019-05-30T08:23:23.979Z,17.00
2019-05-30T08:24:24.133Z,17.15
2019-05-30T08:25:24.330Z,17.09
2019-05-30T08:26:24.514Z,16.88
2019-05-30T08:27:24.669Z,16.96
2019-05-30T08:28:24.823Z,16.77
2019-05-30T08:29:24.982Z,16.85
2019-05-30T08:30:25.159Z,16.88
2019-05-30T08:31:25.306Z,16.77
2019-05-30T08:32:25.437Z,16.88
2019-05-30T08:33:25.609Z,16.98
2019-05-30T08:34:25.740Z,16.88
2019-05-30T08:35:39.030Z,16.85
2019-05-30T08:36:28.770Z,16.69
2019-05-30T08:37:26.240Z,16.69
2019-05-30T08:38:26.407Z,16.59
2019-05-30T08:39:26.553Z,16.50
2019-05-30T08:40:27.490Z,16.60
2019-05-30T08:41:26.851Z,16.50
2019-05-30T08:42:27.973Z,16.48
2019-05-30T08:43:29.278Z,16.29
2019-05-30T08:44:27.273Z,16.50
2019-05-30T08:45:27.435Z,16.47
2019-05-30T08:46:27.582Z,16.51
2019-05-30T08:47:27.756Z,16.52
2019-05-30T08:48:27.994Z,16.50
2019-05-30T08:49:28.158Z,16.57
2019-05-30T08:50:28.310Z,16.73
2019-05-30T08:51:28.452Z,16.81
2019-05-30T08:52:28.625Z,17.12
2019-05-30T08:53:30.104Z,16.91
2019-05-30T08:54:30.181Z,17.09
2019-05-30T08:55:30.163Z,17.40
2019-05-30T08:56:30.205Z,17.68
2019-05-30T08:57:30.489Z,17.95
2019-05-30T08:58:30.426Z,18.07
2019-05-30T08:59:30.318Z,18.11
2019-05-30T09:00:31.081Z,18.35
2019-05-30T09:01:30.255Z,18.31
2019-05-30T09:02:30.417Z,18.31
2019-05-30T09:03:30.589Z,18.56
2019-05-30T09:04:30.786Z,18.56
2019-05-30T09:05:30.970Z,18.26
2019-05-30T09:06:31.138Z,18.20
2019-05-30T09:07:31.820Z,18.09
2019-05-30T09:08:32.998Z,18.16
2019-05-30T09:09:31.644Z,18.31
2019-05-30T09:10:32.508Z,18.14
2019-05-30T09:11:32.014Z,18.02
2019-05-30T09:12:32.197Z,18.09
2019-05-30T09:13:32.391Z,18.26
2019-05-30T09:14:32.620Z,18.60
2019-05-30T09:15:32.799Z,19.13
2019-05-30T09:16:33.013Z,19.28
2019-05-30T09:17:34.003Z,19.57
2019-05-30T09:18:33.398Z,19.46
2019-05-30T09:19:33.599Z,19.30
2019-05-30T09:20:33.751Z,19.34
2019-05-30T09:21:33.926Z,19.76
2019-05-30T09:22:34.112Z,20.40
2019-05-30T09:23:35.029Z,20.30
2019-05-30T09:24:34.533Z,20.38
2019-05-30T09:25:34.602Z,20.17
2019-05-30T09:26:34.754Z,19.97
2019-05-30T09:27:34.887Z,19.62
2019-05-30T09:28:35.044Z,19.46
2019-05-30T09:29:35.264Z,19.17
2019-05-30T09:30:35.415Z,19.25
2019-05-30T09:31:35.551Z,19.20
2019-05-30T09:32:35.692Z,19.35
2019-05-30T09:33:35.877Z,19.35
2019-05-30T09:34:36.518Z,19.39
2019-05-30T09:35:36.180Z,20.25
2019-05-30T09:36:36.371Z,20.68
2019-05-30T09:37:36.528Z,21.31
2019-05-30T09:38:36.738Z,21.16
2019-05-30T09:39:36.934Z,20.72
2019-05-30T09:40:37.137Z,20.42
2019-05-30T09:41:37.330Z,20.07
2019-05-30T09:42:37.510Z,19.87
2019-05-30T09:43:37.692Z,19.95
2019-05-30T09:44:40.525Z,19.89
2019-05-30T09:45:38.093Z,19.92
2019-05-30T09:46:38.255Z,19.78
2019-05-30T09:47:41.287Z,19.76
2019-05-30T09:48:40.149Z,19.70
2019-05-30T09:49:38.761Z,19.46
2019-05-30T09:50:38.947Z,19.58
2019-05-30T09:51:39.083Z,19.85
2019-05-30T09:52:39.218Z,20.04
2019-05-30T09:53:39.355Z,19.68
2019-05-30T09:54:41.173Z,19.82
2019-05-30T09:55:39.698Z,20.04
2019-05-30T09:56:39.827Z,20.33
2019-05-30T09:57:41.296Z,20.71
2019-05-30T09:58:42.220Z,21.00
2019-05-30T09:59:41.789Z,20.94
2019-05-30T10:00:42.907Z,21.06
2019-05-30T10:01:42.631Z,21.46
2019-05-30T10:02:42.962Z,21.53
2019-05-30T10:03:43.065Z,21.12
2019-05-30T10:04:42.047Z,21.28
2019-05-30T10:05:43.308Z,21.45
2019-05-30T10:06:43.573Z,21.58
2019-05-30T10:07:43.518Z,21.68
2019-05-30T10:08:42.476Z,21.90
2019-05-30T10:09:42.747Z,21.99
2019-05-30T10:10:43.758Z,21.63
2019-05-30T10:11:42.807Z,21.52
2019-05-30T10:12:43.897Z,21.58
2019-05-30T10:13:45.746Z,21.66
2019-05-30T10:14:45.629Z,21.74
2019-05-30T10:15:44.059Z,22.11
2019-05-30T10:16:47.324Z,22.21
2019-05-30T10:17:48.307Z,22.20
2019-05-30T10:18:47.236Z,21.73
2019-05-30T10:19:45.846Z,21.38
2019-05-30T10:20:45.799Z,20.91
2019-05-30T10:21:47.119Z,20.91
2019-05-30T10:22:48.285Z,20.90
2019-05-30T10:23:47.183Z,20.83
2019-05-30T10:24:46.299Z,20.78
2019-05-30T10:25:46.644Z,20.56
2019-05-30T10:26:46.092Z,20.60
2019-05-30T10:27:47.899Z,20.79
2019-05-30T10:28:46.413Z,21.11
2019-05-30T10:29:47.523Z,21.11
2019-05-30T10:30:51.777Z,21.48
2019-05-30T10:31:48.327Z,21.63
2019-05-30T10:32:48.168Z,21.82
2019-05-30T10:33:49.210Z,21.96
2019-05-30T10:34:48.047Z,21.63
2019-05-30T10:35:49.146Z,21.49
2019-05-30T10:36:48.757Z,21.70
2019-05-30T10:37:49.093Z,21.94
2019-05-30T10:38:50.221Z,21.85
2019-05-30T10:39:49.187Z,21.96
2019-05-30T10:40:50.338Z,22.26
2019-05-30T10:41:49.022Z,22.04
2019-05-30T10:42:49.610Z,21.93
2019-05-30T10:43:49.064Z,21.28
2019-05-30T10:44:49.918Z,21.48
2019-05-30T10:45:49.640Z,21.90
2019-05-30T10:46:51.009Z,21.66
2019-05-30T10:47:51.236Z,21.99
2019-05-30T10:48:50.941Z,21.83
2019-05-30T10:49:49.920Z,21.99
2019-05-30T10:50:50.726Z,22.05
2019-05-30T10:51:49.867Z,22.44
2019-05-30T10:52:50.036Z,22.86
2019-05-30T10:53:50.857Z,22.96
2019-05-30T10:54:51.528Z,22.81
2019-05-30T10:55:50.560Z,22.79
2019-05-30T10:56:51.486Z,23.11
2019-05-30T10:57:51.741Z,23.42
2019-05-30T10:58:51.063Z,22.75
2019-05-30T10:59:52.560Z,22.12
2019-05-30T11:00:53.339Z,21.70
2019-05-30T11:01:53.054Z,21.58
2019-05-30T11:02:52.934Z,21.43
2019-05-30T11:03:52.626Z,21.52
2019-05-30T11:04:53.131Z,21.77
2019-05-30T11:05:52.867Z,21.89
2019-05-30T11:07:09.876Z,21.74
2019-05-30T11:08:02.042Z,21.70
2019-05-30T11:08:54.765Z,21.77
2019-05-30T11:09:53.175Z,21.56
2019-05-30T11:10:53.302Z,21.63
2019-05-30T11:11:54.903Z,21.51
2019-05-30T11:13:03.091Z,21.16
2019-05-30T11:13:55.920Z,21.06
2019-05-30T11:14:55.280Z,20.91
2019-05-30T11:15:55.459Z,20.69
2019-05-30T11:16:55.496Z,20.68
2019-05-30T11:17:54.842Z,20.60
2019-05-30T11:18:56.095Z,20.57
2019-05-30T11:19:56.099Z,20.79
2019-05-30T11:20:56.242Z,20.83
2019-05-30T11:21:56.286Z,20.88
2019-05-30T11:22:56.518Z,20.97
2019-05-30T11:23:56.815Z,21.08
2019-05-30T11:24:56.856Z,21.16
2019-05-30T11:25:56.863Z,21.11
2019-05-30T11:26:57.125Z,20.98
2019-05-30T11:27:56.856Z,20.96
2019-05-30T11:28:56.795Z,20.75
2019-05-30T11:29:58.915Z,20.64
2019-05-30T11:30:56.937Z,20.61
2019-05-30T11:31:59.046Z,20.50
2019-05-30T11:32:57.332Z,20.35
2019-05-30T11:33:59.181Z,20.12
2019-05-30T11:34:57.609Z,20.15
2019-05-30T11:35:59.249Z,19.94
2019-05-30T11:36:59.132Z,19.98
2019-05-30T11:37:59.254Z,20.05
2019-05-30T11:38:59.431Z,19.98
2019-05-30T11:39:59.467Z,19.83
2019-05-30T11:40:59.623Z,19.68
2019-05-30T11:41:59.522Z,19.78
2019-05-30T11:42:59.944Z,20.02
2019-05-30T11:44:03.960Z,20.16
2019-05-30T11:44:59.959Z,20.33
2019-05-30T11:46:00.529Z,20.42
2019-05-30T11:46:59.846Z,20.26
2019-05-30T11:48:00.142Z,20.12
2019-05-30T11:49:01.548Z,20.26
2019-05-30T11:50:01.054Z,20.23
2019-05-30T11:51:00.370Z,20.33
2019-05-30T11:52:00.433Z,20.34
2019-05-30T11:53:00.589Z,20.56
2019-05-30T11:54:01.158Z,20.60
2019-05-30T11:55:01.957Z,20.35
2019-05-30T11:56:01.123Z,20.22
2019-05-30T11:57:01.283Z,20.25
2019-05-30T11:58:01.495Z,20.38
2019-05-30T11:59:01.674Z,20.41
2019-05-30T12:00:01.845Z,20.46
2019-05-30T12:01:02.035Z,20.41
2019-05-30T12:02:03.075Z,20.20
2019-05-30T12:03:02.347Z,20.20
2019-05-30T12:04:02.500Z,20.35
2019-05-30T12:05:02.660Z,20.44
2019-05-30T12:06:03.057Z,20.33
2019-05-30T12:07:02.952Z,20.51
2019-05-30T12:08:03.132Z,20.63
2019-05-30T12:09:03.268Z,20.73
2019-05-30T12:10:03.402Z,20.53
2019-05-30T12:11:03.564Z,20.46
2019-05-30T12:12:03.696Z,20.34
2019-05-30T12:13:03.862Z,20.22
2019-05-30T12:14:04.002Z,20.05
2019-05-30T12:15:04.150Z,19.86
2019-05-30T12:16:04.304Z,19.87
2019-05-30T12:17:04.470Z,20.01
2019-05-30T12:18:04.619Z,20.08
2019-05-30T12:19:04.739Z,20.37
2019-05-30T12:20:04.884Z,20.51
2019-05-30T12:21:05.020Z,20.73
2019-05-30T12:22:05.176Z,20.68
2019-05-30T12:23:06.078Z,20.73
2019-05-30T12:24:05.450Z,20.88
2019-05-30T12:25:05.609Z,20.78
2019-05-30T12:26:05.743Z,20.61
2019-05-30T12:27:05.938Z,20.38
2019-05-30T12:28:06.104Z,20.15
2019-05-30T12:29:06.270Z,20.26
2019-05-30T12:30:06.407Z,20.15
2019-05-30T12:31:06.824Z,20.25
2019-05-30T12:32:07.739Z,20.60
2019-05-30T12:33:06.854Z,20.83
2019-05-30T12:34:07.012Z,20.97
2019-05-30T12:35:07.154Z,20.87
2019-05-30T12:36:08.304Z,20.66
2019-05-30T12:37:07.552Z,20.48
2019-05-30T12:38:07.684Z,20.57
2019-05-30T12:39:07.854Z,20.48
2019-05-30T12:40:08.581Z,19.95
2019-05-30T12:41:08.234Z,19.89
2019-05-30T12:42:08.447Z,20.10
2019-05-30T12:43:08.624Z,20.35
2019-05-30T12:44:08.772Z,20.05
2019-05-30T12:45:08.944Z,20.27
2019-05-30T12:46:10.071Z,19.92
2019-05-30T12:47:09.332Z,19.78
2019-05-30T12:48:09.526Z,19.75
2019-05-30T12:49:09.651Z,19.62
2019-05-30T12:50:09.813Z,19.61
2019-05-30T12:51:09.956Z,19.78
2019-05-30T12:52:10.098Z,19.60
2019-05-30T12:53:11.273Z,19.61
2019-05-30T12:54:10.384Z,19.70